sensor_id;sensor_type;location;lat;lon;timestamp;pressure;altitude;pressure_sealevel;temperature;humidity
76011;BME280;64701;43.536;1.478;2023-04-08T00:01:08;99489.41;;;12.40;43.10
76011;BME280;64701;43.536;1.478;2023-04-08T00:03:33;99485.75;;;12.35;43.10
76011;BME280;64701;43.536;1.478;2023-04-08T00:05:59;99485.53;;;12.30;44.16
76011;BME280;64701;43.536;1.478;2023-04-08T00:08:26;99480.84;;;12.25;44.31
76011;BME280;64701;43.536;1.478;2023-04-08T00:10:52;99491.84;;;12.22;43.13
76011;BME280;64701;43.536;1.478;2023-04-08T00:13:17;99493.06;;;12.13;44.75
76011;BME280;64701;43.536;1.478;2023-04-08T00:15:42;99490.22;;;12.08;44.82
76011;BME280;64701;43.536;1.478;2023-04-08T00:18:08;99486.31;;;12.04;44.30
76011;BME280;64701;43.536;1.478;2023-04-08T00:20:33;99493.06;;;12.00;43.90
76011;BME280;64701;43.536;1.478;2023-04-08T00:22:58;99489.56;;;11.93;44.24
76011;BME280;64701;43.536;1.478;2023-04-08T00:25:24;99488.53;;;11.87;45.04
76011;BME280;64701;43.536;1.478;2023-04-08T00:27:49;99491.16;;;11.80;45.35
76011;BME280;64701;43.536;1.478;2023-04-08T00:30:14;99486.47;;;11.76;44.80
76011;BME280;64701;43.536;1.478;2023-04-08T00:32:40;99495.38;;;11.68;46.42
76011;BME280;64701;43.536;1.478;2023-04-08T00:35:05;99502.28;;;11.56;46.52
76011;BME280;64701;43.536;1.478;2023-04-08T00:37:31;99501.22;;;11.51;46.65
76011;BME280;64701;43.536;1.478;2023-04-08T00:39:56;99492.88;;;11.47;46.31
76011;BME280;64701;43.536;1.478;2023-04-08T00:42:22;99500.19;;;11.45;47.25
76011;BME280;64701;43.536;1.478;2023-04-08T00:44:47;99492.44;;;11.37;46.94
76011;BME280;64701;43.536;1.478;2023-04-08T00:47:13;99494.44;;;11.35;47.64
76011;BME280;64701;43.536;1.478;2023-04-08T00:49:38;99498.50;;;11.31;46.88
76011;BME280;64701;43.536;1.478;2023-04-08T00:52:04;99502.38;;;11.28;46.93
76011;BME280;64701;43.536;1.478;2023-04-08T00:54:30;99499.06;;;11.26;47.52
76011;BME280;64701;43.536;1.478;2023-04-08T00:56:55;99502.97;;;11.24;47.07
76011;BME280;64701;43.536;1.478;2023-04-08T00:59:21;99496.59;;;11.18;47.44
76011;BME280;64701;43.536;1.478;2023-04-08T01:01:58;99498.63;;;11.16;48.06
76011;BME280;64701;43.536;1.478;2023-04-08T01:07:19;99500.81;;;11.06;48.05
76011;BME280;64701;43.536;1.478;2023-04-08T01:09:55;99504.06;;;11.01;47.83
76011;BME280;64701;43.536;1.478;2023-04-08T01:12:28;99504.25;;;11.00;47.63
76011;BME280;64701;43.536;1.478;2023-04-08T01:14:56;99506.44;;;10.96;48.27
76011;BME280;64701;43.536;1.478;2023-04-08T01:17:23;99503.56;;;10.91;48.69
76011;BME280;64701;43.536;1.478;2023-04-08T01:19:48;99500.69;;;10.86;48.05
76011;BME280;64701;43.536;1.478;2023-04-08T01:22:18;99503.94;;;10.82;48.14
76011;BME280;64701;43.536;1.478;2023-04-08T01:24:47;99499.22;;;10.77;48.57
76011;BME280;64701;43.536;1.478;2023-04-08T01:27:14;99500.59;;;10.73;49.04
76011;BME280;64701;43.536;1.478;2023-04-08T01:29:40;99504.00;;;10.60;50.70
76011;BME280;64701;43.536;1.478;2023-04-08T01:32:07;99505.31;;;10.50;52.74
76011;BME280;64701;43.536;1.478;2023-04-08T01:34:33;99511.31;;;10.37;53.47
76011;BME280;64701;43.536;1.478;2023-04-08T01:36:59;99511.56;;;10.21;54.20
76011;BME280;64701;43.536;1.478;2023-04-08T01:39:26;99512.16;;;10.16;55.20
76011;BME280;64701;43.536;1.478;2023-04-08T01:41:52;99511.63;;;10.06;54.89
76011;BME280;64701;43.536;1.478;2023-04-08T01:44:17;99512.03;;;9.89;54.98
76011;BME280;64701;43.536;1.478;2023-04-08T01:46:44;99507.69;;;9.81;55.45
76011;BME280;64701;43.536;1.478;2023-04-08T01:49:11;99501.75;;;9.79;54.62
76011;BME280;64701;43.536;1.478;2023-04-08T01:51:36;99504.41;;;9.79;54.21
76011;BME280;64701;43.536;1.478;2023-04-08T01:54:02;99504.03;;;9.82;54.57
76011;BME280;64701;43.536;1.478;2023-04-08T01:56:28;99508.13;;;9.84;53.73
76011;BME280;64701;43.536;1.478;2023-04-08T01:58:54;99506.75;;;9.89;53.10
76011;BME280;64701;43.536;1.478;2023-04-08T02:01:22;99498.44;;;9.92;53.84
76011;BME280;64701;43.536;1.478;2023-04-08T02:03:49;99498.25;;;9.93;53.79
76011;BME280;64701;43.536;1.478;2023-04-08T02:06:16;99492.56;;;9.96;53.80
76011;BME280;64701;43.536;1.478;2023-04-08T02:08:41;99496.84;;;9.97;53.29
76011;BME280;64701;43.536;1.478;2023-04-08T02:11:06;99489.94;;;9.96;54.80
76011;BME280;64701;43.536;1.478;2023-04-08T02:13:32;99494.22;;;9.97;55.24
76011;BME280;64701;43.536;1.478;2023-04-08T02:16:04;99495.84;;;9.98;54.29
76011;BME280;64701;43.536;1.478;2023-04-08T02:18:31;99496.69;;;9.99;52.85
76011;BME280;64701;43.536;1.478;2023-04-08T02:21:16;99491.63;;;10.04;51.84
76011;BME280;64701;43.536;1.478;2023-04-08T02:23:45;99498.41;;;10.06;53.11
76011;BME280;64701;43.536;1.478;2023-04-08T02:26:13;99494.09;;;10.05;52.90
76011;BME280;64701;43.536;1.478;2023-04-08T02:28:39;99500.00;;;10.07;52.06
76011;BME280;64701;43.536;1.478;2023-04-08T02:31:08;99501.28;;;10.11;51.98
76011;BME280;64701;43.536;1.478;2023-04-08T02:33:34;99505.03;;;10.17;52.32
76011;BME280;64701;43.536;1.478;2023-04-08T02:36:01;99497.16;;;10.23;51.97
76011;BME280;64701;43.536;1.478;2023-04-08T02:38:27;99490.88;;;10.31;51.72
76011;BME280;64701;43.536;1.478;2023-04-08T02:40:54;99497.66;;;10.34;52.71
76011;BME280;64701;43.536;1.478;2023-04-08T02:43:20;99495.88;;;10.41;51.75
76011;BME280;64701;43.536;1.478;2023-04-08T02:45:45;99492.66;;;10.45;52.63
76011;BME280;64701;43.536;1.478;2023-04-08T02:48:11;99495.53;;;10.50;52.17
76011;BME280;64701;43.536;1.478;2023-04-08T02:50:36;99491.06;;;10.51;52.48
76011;BME280;64701;43.536;1.478;2023-04-08T02:53:02;99490.25;;;10.50;53.05
76011;BME280;64701;43.536;1.478;2023-04-08T02:55:27;99502.91;;;10.55;52.27
76011;BME280;64701;43.536;1.478;2023-04-08T02:57:53;99495.22;;;10.60;52.45
76011;BME280;64701;43.536;1.478;2023-04-08T03:00:18;99494.47;;;10.66;51.89
76011;BME280;64701;43.536;1.478;2023-04-08T03:02:43;99492.41;;;10.68;52.10
76011;BME280;64701;43.536;1.478;2023-04-08T03:05:09;99492.03;;;10.71;51.52
76011;BME280;64701;43.536;1.478;2023-04-08T03:07:34;99496.34;;;10.72;52.25
76011;BME280;64701;43.536;1.478;2023-04-08T03:10:00;99499.34;;;10.69;53.34
76011;BME280;64701;43.536;1.478;2023-04-08T03:12:25;99501.56;;;10.66;52.03
76011;BME280;64701;43.536;1.478;2023-04-08T03:14:53;99492.19;;;10.63;52.19
76011;BME280;64701;43.536;1.478;2023-04-08T03:17:19;99499.47;;;10.61;52.50
76011;BME280;64701;43.536;1.478;2023-04-08T03:19:45;99500.00;;;10.50;55.86
76011;BME280;64701;43.536;1.478;2023-04-08T03:22:10;99505.31;;;10.50;52.79
76011;BME280;64701;43.536;1.478;2023-04-08T03:24:35;99491.59;;;10.40;53.71
76011;BME280;64701;43.536;1.478;2023-04-08T03:27:01;99499.94;;;10.37;53.43
76011;BME280;64701;43.536;1.478;2023-04-08T03:29:26;99495.34;;;10.24;55.93
76011;BME280;64701;43.536;1.478;2023-04-08T03:31:52;99498.72;;;10.18;55.46
76011;BME280;64701;43.536;1.478;2023-04-08T03:34:17;99503.28;;;10.09;56.36
76011;BME280;64701;43.536;1.478;2023-04-08T03:36:42;99500.72;;;9.95;57.93
76011;BME280;64701;43.536;1.478;2023-04-08T03:39:07;99507.94;;;9.86;55.78
76011;BME280;64701;43.536;1.478;2023-04-08T03:41:33;99507.16;;;9.71;59.12
76011;BME280;64701;43.536;1.478;2023-04-08T03:43:58;99507.72;;;9.66;58.84
76011;BME280;64701;43.536;1.478;2023-04-08T03:46:23;99512.09;;;9.59;57.39
76011;BME280;64701;43.536;1.478;2023-04-08T03:48:49;99499.44;;;9.55;56.99
76011;BME280;64701;43.536;1.478;2023-04-08T03:51:14;99509.09;;;9.48;56.29
76011;BME280;64701;43.536;1.478;2023-04-08T03:53:39;99509.50;;;9.45;56.18
76011;BME280;64701;43.536;1.478;2023-04-08T03:56:05;99504.13;;;9.38;56.51
76011;BME280;64701;43.536;1.478;2023-04-08T03:58:30;99505.25;;;9.29;57.08
76011;BME280;64701;43.536;1.478;2023-04-08T04:00:56;99503.59;;;9.28;56.00
76011;BME280;64701;43.536;1.478;2023-04-08T04:03:21;99496.03;;;9.25;56.16
76011;BME280;64701;43.536;1.478;2023-04-08T04:05:46;99500.69;;;9.23;56.13
76011;BME280;64701;43.536;1.478;2023-04-08T04:08:12;99492.28;;;9.19;55.88
76011;BME280;64701;43.536;1.478;2023-04-08T04:10:37;99489.22;;;9.16;57.32
76011;BME280;64701;43.536;1.478;2023-04-08T04:13:02;99489.56;;;9.13;55.75
76011;BME280;64701;43.536;1.478;2023-04-08T04:15:27;99492.75;;;9.08;56.46
76011;BME280;64701;43.536;1.478;2023-04-08T04:17:53;99490.50;;;9.05;56.48
76011;BME280;64701;43.536;1.478;2023-04-08T04:20:18;99492.03;;;8.99;57.23
76011;BME280;64701;43.536;1.478;2023-04-08T04:22:44;99493.38;;;8.95;56.56
76011;BME280;64701;43.536;1.478;2023-04-08T04:25:09;99494.94;;;8.90;56.82
76011;BME280;64701;43.536;1.478;2023-04-08T04:27:34;99489.72;;;8.82;57.33
76011;BME280;64701;43.536;1.478;2023-04-08T04:30:01;99488.47;;;8.78;57.16
76011;BME280;64701;43.536;1.478;2023-04-08T04:32:26;99494.63;;;8.70;58.38
76011;BME280;64701;43.536;1.478;2023-04-08T04:34:51;99495.84;;;8.68;58.43
76011;BME280;64701;43.536;1.478;2023-04-08T04:37:17;99496.53;;;8.62;57.41
76011;BME280;64701;43.536;1.478;2023-04-08T04:39:42;99504.81;;;8.58;57.96
76011;BME280;64701;43.536;1.478;2023-04-08T04:42:07;99506.81;;;8.56;57.83
76011;BME280;64701;43.536;1.478;2023-04-08T04:44:33;99502.31;;;8.42;60.76
76011;BME280;64701;43.536;1.478;2023-04-08T04:46:58;99510.41;;;8.41;59.08
76011;BME280;64701;43.536;1.478;2023-04-08T04:49:23;99511.22;;;8.41;58.40
76011;BME280;64701;43.536;1.478;2023-04-08T04:51:49;99512.06;;;8.42;59.19
76011;BME280;64701;43.536;1.478;2023-04-08T04:54:14;99514.88;;;8.40;58.30
76011;BME280;64701;43.536;1.478;2023-04-08T04:56:39;99522.97;;;8.39;59.36
76011;BME280;64701;43.536;1.478;2023-04-08T04:59:05;99520.34;;;8.39;58.70
76011;BME280;64701;43.536;1.478;2023-04-08T05:01:31;99521.50;;;8.36;58.99
76011;BME280;64701;43.536;1.478;2023-04-08T05:03:56;99522.88;;;8.32;58.63
76011;BME280;64701;43.536;1.478;2023-04-08T05:06:22;99516.28;;;8.28;59.65
76011;BME280;64701;43.536;1.478;2023-04-08T05:08:47;99519.09;;;8.27;58.92
76011;BME280;64701;43.536;1.478;2023-04-08T05:11:12;99529.63;;;8.27;58.17
76011;BME280;64701;43.536;1.478;2023-04-08T05:13:38;99515.78;;;8.25;58.62
76011;BME280;64701;43.536;1.478;2023-04-08T05:16:03;99520.25;;;8.24;58.89
76011;BME280;64701;43.536;1.478;2023-04-08T05:18:28;99523.06;;;8.23;58.20
76011;BME280;64701;43.536;1.478;2023-04-08T05:20:54;99532.81;;;8.22;58.41
76011;BME280;64701;43.536;1.478;2023-04-08T05:23:19;99529.84;;;8.17;59.37
76011;BME280;64701;43.536;1.478;2023-04-08T05:25:44;99538.59;;;8.17;58.46
76011;BME280;64701;43.536;1.478;2023-04-08T05:28:10;99539.56;;;8.16;58.62
76011;BME280;64701;43.536;1.478;2023-04-08T05:30:35;99553.13;;;8.13;60.23
76011;BME280;64701;43.536;1.478;2023-04-08T05:33:00;99549.66;;;8.13;58.83
76011;BME280;64701;43.536;1.478;2023-04-08T05:35:26;99558.13;;;8.08;59.12
76011;BME280;64701;43.536;1.478;2023-04-08T05:37:52;99567.19;;;8.06;59.77
76011;BME280;64701;43.536;1.478;2023-04-08T05:40:17;99574.50;;;7.96;62.93
76011;BME280;64701;43.536;1.478;2023-04-08T05:42:42;99578.13;;;7.95;60.21
76011;BME280;64701;43.536;1.478;2023-04-08T05:45:08;99579.47;;;7.91;59.45
76011;BME280;64701;43.536;1.478;2023-04-08T05:47:33;99585.38;;;7.93;59.87
76011;BME280;64701;43.536;1.478;2023-04-08T05:49:59;99590.66;;;7.93;60.19
76011;BME280;64701;43.536;1.478;2023-04-08T05:52:24;99588.66;;;7.95;59.66
76011;BME280;64701;43.536;1.478;2023-04-08T05:54:49;99599.22;;;7.95;59.73
76011;BME280;64701;43.536;1.478;2023-04-08T05:57:15;99600.88;;;7.96;60.61
76011;BME280;64701;43.536;1.478;2023-04-08T05:59:40;99600.50;;;7.99;59.65
76011;BME280;64701;43.536;1.478;2023-04-08T06:02:06;99596.06;;;7.99;60.04
76011;BME280;64701;43.536;1.478;2023-04-08T06:04:31;99603.78;;;8.01;60.69
76011;BME280;64701;43.536;1.478;2023-04-08T06:06:56;99610.56;;;8.03;60.22
76011;BME280;64701;43.536;1.478;2023-04-08T06:09:24;99609.53;;;8.04;60.36
76011;BME280;64701;43.536;1.478;2023-04-08T06:11:49;99602.28;;;8.06;61.09
76011;BME280;64701;43.536;1.478;2023-04-08T06:14:15;99607.38;;;8.08;61.38
76011;BME280;64701;43.536;1.478;2023-04-08T06:16:40;99611.31;;;8.12;59.86
76011;BME280;64701;43.536;1.478;2023-04-08T06:19:06;99607.34;;;8.16;61.14
76011;BME280;64701;43.536;1.478;2023-04-08T06:21:31;99615.56;;;8.21;60.04
76011;BME280;64701;43.536;1.478;2023-04-08T06:23:56;99614.88;;;8.27;60.25
76011;BME280;64701;43.536;1.478;2023-04-08T06:26:21;99616.03;;;8.33;60.08
76011;BME280;64701;43.536;1.478;2023-04-08T06:28:47;99612.69;;;8.39;60.48
76011;BME280;64701;43.536;1.478;2023-04-08T06:31:12;99618.91;;;8.46;59.04
76011;BME280;64701;43.536;1.478;2023-04-08T06:33:37;99625.91;;;8.53;59.69
76011;BME280;64701;43.536;1.478;2023-04-08T06:36:06;99627.84;;;8.59;60.32
76011;BME280;64701;43.536;1.478;2023-04-08T06:38:32;99633.09;;;8.68;59.84
76011;BME280;64701;43.536;1.478;2023-04-08T06:41:01;99634.38;;;8.72;60.96
76011;BME280;64701;43.536;1.478;2023-04-08T06:43:26;99638.94;;;8.78;61.01
76011;BME280;64701;43.536;1.478;2023-04-08T06:45:51;99639.06;;;8.84;60.70
76011;BME280;64701;43.536;1.478;2023-04-08T06:48:17;99640.16;;;8.90;60.04
76011;BME280;64701;43.536;1.478;2023-04-08T06:50:42;99643.72;;;8.97;60.11
76011;BME280;64701;43.536;1.478;2023-04-08T06:53:08;99649.13;;;9.04;60.35
76011;BME280;64701;43.536;1.478;2023-04-08T06:55:33;99644.78;;;9.11;60.39
76011;BME280;64701;43.536;1.478;2023-04-08T06:57:58;99644.06;;;9.17;60.57
76011;BME280;64701;43.536;1.478;2023-04-08T07:00:26;99647.59;;;9.24;60.90
76011;BME280;64701;43.536;1.478;2023-04-08T07:02:51;99650.34;;;9.30;59.68
76011;BME280;64701;43.536;1.478;2023-04-08T07:05:16;99654.91;;;9.36;59.95
76011;BME280;64701;43.536;1.478;2023-04-08T07:07:42;99641.63;;;9.45;59.65
76011;BME280;64701;43.536;1.478;2023-04-08T07:10:07;99646.19;;;9.51;59.66
76011;BME280;64701;43.536;1.478;2023-04-08T07:12:32;99648.75;;;9.59;59.42
76011;BME280;64701;43.536;1.478;2023-04-08T07:14:58;99648.81;;;9.65;59.55
76011;BME280;64701;43.536;1.478;2023-04-08T07:17:23;99656.66;;;9.73;59.26
76011;BME280;64701;43.536;1.478;2023-04-08T07:19:48;99651.84;;;9.77;59.72
76011;BME280;64701;43.536;1.478;2023-04-08T07:22:13;99655.22;;;9.86;58.95
76011;BME280;64701;43.536;1.478;2023-04-08T07:24:40;99658.94;;;9.91;59.42
76011;BME280;64701;43.536;1.478;2023-04-08T07:27:07;99652.91;;;9.97;58.86
76011;BME280;64701;43.536;1.478;2023-04-08T07:29:33;99660.13;;;10.03;60.49
76011;BME280;64701;43.536;1.478;2023-04-08T07:31:58;99662.41;;;10.06;60.67
76011;BME280;64701;43.536;1.478;2023-04-08T07:34:23;99667.13;;;10.11;61.13
76011;BME280;64701;43.536;1.478;2023-04-08T07:36:49;99676.19;;;10.16;58.81
76011;BME280;64701;43.536;1.478;2023-04-08T07:39:14;99671.16;;;10.21;58.09
76011;BME280;64701;43.536;1.478;2023-04-08T07:41:40;99669.78;;;10.26;58.42
76011;BME280;64701;43.536;1.478;2023-04-08T07:44:05;99676.16;;;10.31;57.97
76011;BME280;64701;43.536;1.478;2023-04-08T07:46:34;99673.78;;;10.36;58.09
76011;BME280;64701;43.536;1.478;2023-04-08T07:49:00;99682.81;;;10.42;57.46
76011;BME280;64701;43.536;1.478;2023-04-08T07:51:25;99679.94;;;10.43;57.37
76011;BME280;64701;43.536;1.478;2023-04-08T07:53:51;99683.50;;;10.50;57.32
76011;BME280;64701;43.536;1.478;2023-04-08T07:56:17;99691.50;;;10.57;56.91
76011;BME280;64701;43.536;1.478;2023-04-08T07:58:42;99694.41;;;10.62;56.61
76011;BME280;64701;43.536;1.478;2023-04-08T08:01:17;99695.31;;;10.69;56.83
76011;BME280;64701;43.536;1.478;2023-04-08T08:03:43;99696.22;;;10.76;56.39
76011;BME280;64701;43.536;1.478;2023-04-08T08:06:12;99698.09;;;10.82;56.43
76011;BME280;64701;43.536;1.478;2023-04-08T08:08:37;99695.53;;;10.89;55.86
76011;BME280;64701;43.536;1.478;2023-04-08T08:11:03;99702.50;;;10.96;55.49
76011;BME280;64701;43.536;1.478;2023-04-08T08:13:28;99698.91;;;11.04;56.77
76011;BME280;64701;43.536;1.478;2023-04-08T08:15:53;99709.22;;;11.14;56.69
76011;BME280;64701;43.536;1.478;2023-04-08T08:18:19;99703.75;;;11.22;56.38
76011;BME280;64701;43.536;1.478;2023-04-08T08:20:45;99705.28;;;11.31;56.00
76011;BME280;64701;43.536;1.478;2023-04-08T08:23:10;99706.16;;;11.38;55.72
76011;BME280;64701;43.536;1.478;2023-04-08T08:25:36;99705.63;;;11.49;56.66
76011;BME280;64701;43.536;1.478;2023-04-08T08:28:01;99710.75;;;11.57;55.16
76011;BME280;64701;43.536;1.478;2023-04-08T08:30:26;99707.97;;;11.65;55.07
76011;BME280;64701;43.536;1.478;2023-04-08T08:32:52;99707.19;;;11.71;56.06
76011;BME280;64701;43.536;1.478;2023-04-08T08:35:17;99704.44;;;11.79;56.00
76011;BME280;64701;43.536;1.478;2023-04-08T08:37:43;99700.22;;;11.92;55.02
76011;BME280;64701;43.536;1.478;2023-04-08T08:40:08;99709.22;;;12.04;54.92
76011;BME280;64701;43.536;1.478;2023-04-08T08:42:34;99708.06;;;12.13;54.78
76011;BME280;64701;43.536;1.478;2023-04-08T08:45:03;99705.47;;;12.26;55.07
76011;BME280;64701;43.536;1.478;2023-04-08T08:47:29;99706.75;;;12.37;54.21
76011;BME280;64701;43.536;1.478;2023-04-08T08:49:54;99709.22;;;12.51;54.70
76011;BME280;64701;43.536;1.478;2023-04-08T08:52:20;99710.09;;;12.65;54.41
76011;BME280;64701;43.536;1.478;2023-04-08T08:54:45;99713.19;;;12.75;54.24
76011;BME280;64701;43.536;1.478;2023-04-08T08:57:17;99716.69;;;12.89;53.03
76011;BME280;64701;43.536;1.478;2023-04-08T08:59:44;99718.19;;;13.04;54.80
76011;BME280;64701;43.536;1.478;2023-04-08T09:02:26;99725.78;;;13.14;53.14
76011;BME280;64701;43.536;1.478;2023-04-08T09:04:55;99722.31;;;13.27;52.19
76011;BME280;64701;43.536;1.478;2023-04-08T09:07:22;99724.16;;;13.39;52.13
76011;BME280;64701;43.536;1.478;2023-04-08T09:09:48;99724.75;;;13.55;52.17
76011;BME280;64701;43.536;1.478;2023-04-08T09:12:14;99719.44;;;13.61;51.57
76011;BME280;64701;43.536;1.478;2023-04-08T09:14:39;99716.97;;;13.73;51.57
76011;BME280;64701;43.536;1.478;2023-04-08T09:17:05;99723.72;;;13.82;52.05
76011;BME280;64701;43.536;1.478;2023-04-08T09:19:30;99716.72;;;13.94;51.87
76011;BME280;64701;43.536;1.478;2023-04-08T09:22:08;99715.84;;;14.07;52.03
76011;BME280;64701;43.536;1.478;2023-04-08T09:24:34;99716.47;;;14.15;50.67
76011;BME280;64701;43.536;1.478;2023-04-08T09:27:00;99715.19;;;14.24;50.71
76011;BME280;64701;43.536;1.478;2023-04-08T09:29:26;99723.78;;;14.40;51.52
76011;BME280;64701;43.536;1.478;2023-04-08T09:31:58;99717.97;;;14.49;50.04
76011;BME280;64701;43.536;1.478;2023-04-08T09:34:24;99725.91;;;14.62;51.72
76011;BME280;64701;43.536;1.478;2023-04-08T09:36:51;99725.03;;;14.75;51.67
76011;BME280;64701;43.536;1.478;2023-04-08T09:39:16;99727.19;;;14.91;51.62
76011;BME280;64701;43.536;1.478;2023-04-08T09:41:42;99726.09;;;15.05;50.63
76011;BME280;64701;43.536;1.478;2023-04-08T09:44:09;99728.06;;;15.17;49.84
76011;BME280;64701;43.536;1.478;2023-04-08T09:49:09;99729.94;;;15.41;50.23
76011;BME280;64701;43.536;1.478;2023-04-08T09:51:45;99729.41;;;15.57;50.47
76011;BME280;64701;43.536;1.478;2023-04-08T09:54:13;99728.63;;;15.75;51.42
76011;BME280;64701;43.536;1.478;2023-04-08T09:56:59;99725.00;;;15.87;49.75
76011;BME280;64701;43.536;1.478;2023-04-08T09:59:26;99723.25;;;16.00;47.33
76011;BME280;64701;43.536;1.478;2023-04-08T10:01:54;99718.66;;;16.07;46.37
76011;BME280;64701;43.536;1.478;2023-04-08T10:04:22;99718.06;;;16.23;47.84
76011;BME280;64701;43.536;1.478;2023-04-08T10:06:51;99723.78;;;16.26;46.16
76011;BME280;64701;43.536;1.478;2023-04-08T10:09:19;99715.28;;;16.48;48.79
76011;BME280;64701;43.536;1.478;2023-04-08T10:11:45;99713.31;;;16.61;46.82
76011;BME280;64701;43.536;1.478;2023-04-08T10:14:10;99716.03;;;16.73;48.26
76011;BME280;64701;43.536;1.478;2023-04-08T10:16:36;99724.00;;;16.91;46.94
76011;BME280;64701;43.536;1.478;2023-04-08T10:19:03;99721.78;;;17.00;46.77
76011;BME280;64701;43.536;1.478;2023-04-08T10:21:48;99721.94;;;17.17;44.46
76011;BME280;64701;43.536;1.478;2023-04-08T10:24:14;99723.16;;;17.32;45.73
76011;BME280;64701;43.536;1.478;2023-04-08T10:31:42;99726.69;;;17.56;44.78
76011;BME280;64701;43.536;1.478;2023-04-08T10:34:21;99725.50;;;17.52;42.35
76011;BME280;64701;43.536;1.478;2023-04-08T10:36:50;99719.50;;;17.80;44.91
76011;BME280;64701;43.536;1.478;2023-04-08T10:39:16;99722.06;;;17.98;44.44
76011;BME280;64701;43.536;1.478;2023-04-08T10:41:45;99713.28;;;18.14;45.87
76011;BME280;64701;43.536;1.478;2023-04-08T10:44:22;99715.22;;;18.30;44.46
76011;BME280;64701;43.536;1.478;2023-04-08T10:46:48;99716.25;;;18.41;40.98
76011;BME280;64701;43.536;1.478;2023-04-08T10:49:16;99716.81;;;18.55;40.47
76011;BME280;64701;43.536;1.478;2023-04-08T10:51:42;99713.94;;;18.73;40.91
76011;BME280;64701;43.536;1.478;2023-04-08T10:54:10;99714.34;;;18.93;43.86
76011;BME280;64701;43.536;1.478;2023-04-08T10:56:42;99722.03;;;19.18;43.86
76011;BME280;64701;43.536;1.478;2023-04-08T10:59:07;99711.28;;;19.35;40.68
76011;BME280;64701;43.536;1.478;2023-04-08T11:01:37;99710.50;;;19.51;43.56
76011;BME280;64701;43.536;1.478;2023-04-08T11:04:06;99707.69;;;19.79;41.51
76011;BME280;64701;43.536;1.478;2023-04-08T11:06:31;99701.56;;;20.01;40.59
76011;BME280;64701;43.536;1.478;2023-04-08T11:09:01;99704.06;;;20.29;40.66
76011;BME280;64701;43.536;1.478;2023-04-08T11:11:27;99707.81;;;20.50;40.13
76011;BME280;64701;43.536;1.478;2023-04-08T11:13:53;99711.25;;;20.67;39.51
76011;BME280;64701;43.536;1.478;2023-04-08T11:16:21;99712.72;;;20.79;34.90
76011;BME280;64701;43.536;1.478;2023-04-08T11:18:46;99702.16;;;21.00;37.57
76011;BME280;64701;43.536;1.478;2023-04-08T11:21:12;99701.81;;;21.18;35.98
76011;BME280;64701;43.536;1.478;2023-04-08T11:23:37;99697.72;;;21.42;35.90
76011;BME280;64701;43.536;1.478;2023-04-08T11:26:02;99698.94;;;21.62;35.12
76011;BME280;64701;43.536;1.478;2023-04-08T11:28:28;99697.38;;;21.71;35.49
76011;BME280;64701;43.536;1.478;2023-04-08T11:30:54;99692.50;;;22.10;33.24
76011;BME280;64701;43.536;1.478;2023-04-08T11:33:19;99691.75;;;22.24;33.95
76011;BME280;64701;43.536;1.478;2023-04-08T11:35:45;99681.00;;;22.34;34.40
76011;BME280;64701;43.536;1.478;2023-04-08T11:38:10;99674.13;;;22.74;35.62
76011;BME280;64701;43.536;1.478;2023-04-08T11:40:36;99681.97;;;23.36;34.21
76011;BME280;64701;43.536;1.478;2023-04-08T11:43:08;99683.38;;;23.24;30.55
76011;BME280;64701;43.536;1.478;2023-04-08T11:45:37;99675.50;;;23.68;35.14
76011;BME280;64701;43.536;1.478;2023-04-08T11:48:09;99676.59;;;24.46;33.27
76011;BME280;64701;43.536;1.478;2023-04-08T11:50:35;99668.78;;;24.89;30.11
76011;BME280;64701;43.536;1.478;2023-04-08T11:53:00;99668.97;;;24.97;29.27
76011;BME280;64701;43.536;1.478;2023-04-08T11:55:31;99673.63;;;25.59;32.31
76011;BME280;64701;43.536;1.478;2023-04-08T11:58:00;99668.50;;;26.29;27.24
76011;BME280;64701;43.536;1.478;2023-04-08T12:00:27;99670.53;;;26.61;28.52
76011;BME280;64701;43.536;1.478;2023-04-08T12:02:52;99671.69;;;27.44;29.41
76011;BME280;64701;43.536;1.478;2023-04-08T12:05:17;99662.81;;;27.98;22.92
76011;BME280;64701;43.536;1.478;2023-04-08T12:07:43;99661.16;;;28.52;25.28
76011;BME280;64701;43.536;1.478;2023-04-08T12:10:09;99667.50;;;29.19;25.47
76011;BME280;64701;43.536;1.478;2023-04-08T12:12:34;99666.75;;;29.49;25.04
76011;BME280;64701;43.536;1.478;2023-04-08T12:15:00;99656.38;;;29.91;22.95
76011;BME280;64701;43.536;1.478;2023-04-08T12:17:25;99660.81;;;29.87;21.11
76011;BME280;64701;43.536;1.478;2023-04-08T12:19:50;99650.66;;;30.18;23.93
76011;BME280;64701;43.536;1.478;2023-04-08T12:22:16;99656.69;;;31.23;22.16
76011;BME280;64701;43.536;1.478;2023-04-08T12:24:41;99651.06;;;32.13;21.49
76011;BME280;64701;43.536;1.478;2023-04-08T12:27:06;99651.66;;;32.48;20.02
76011;BME280;64701;43.536;1.478;2023-04-08T12:29:32;99650.44;;;33.20;19.26
76011;BME280;64701;43.536;1.478;2023-04-08T12:31:57;99652.28;;;33.28;19.91
76011;BME280;64701;43.536;1.478;2023-04-08T12:34:23;99656.78;;;33.78;21.20
76011;BME280;64701;43.536;1.478;2023-04-08T12:36:48;99650.69;;;32.94;19.33
76011;BME280;64701;43.536;1.478;2023-04-08T12:39:14;99650.81;;;33.88;21.50
76011;BME280;64701;43.536;1.478;2023-04-08T12:41:39;99647.53;;;33.61;19.25
76011;BME280;64701;43.536;1.478;2023-04-08T12:44:05;99646.22;;;34.28;19.07
76011;BME280;64701;43.536;1.478;2023-04-08T12:46:30;99642.81;;;34.31;18.50
76011;BME280;64701;43.536;1.478;2023-04-08T12:48:56;99636.97;;;34.73;18.58
76011;BME280;64701;43.536;1.478;2023-04-08T12:51:21;99644.78;;;34.71;17.82
76011;BME280;64701;43.536;1.478;2023-04-08T12:53:46;99628.56;;;34.41;16.02
76011;BME280;64701;43.536;1.478;2023-04-08T12:56:12;99636.09;;;34.97;18.50
76011;BME280;64701;43.536;1.478;2023-04-08T12:58:37;99628.19;;;35.54;17.59
76011;BME280;64701;43.536;1.478;2023-04-08T13:01:03;99633.69;;;36.17;17.34
76011;BME280;64701;43.536;1.478;2023-04-08T13:03:28;99625.13;;;36.57;17.82
76011;BME280;64701;43.536;1.478;2023-04-08T13:05:55;99615.22;;;35.55;15.71
76011;BME280;64701;43.536;1.478;2023-04-08T13:08:23;99619.03;;;35.82;17.75
76011;BME280;64701;43.536;1.478;2023-04-08T13:10:48;99620.53;;;36.11;16.30